TimeCDT,TemperatureF,Dew PointF,Humidity,Sea Level PressureIn,VisibilityMPH,Wind Direction,Wind SpeedMPH,Gust SpeedMPH,PrecipitationIn,Events,Conditions,WindDirDegrees,DateUTC
12:15 AM,57.2,55.4,94,30.03,10.0,Calm,Calm,-,N/A,,Clear,0,2013-04-02 05:15:00
12:35 AM,57.2,55.4,94,30.03,10.0,Calm,Calm,-,N/A,,Clear,0,2013-04-02 05:35:00
12:55 AM,59.0,55.4,88,30.02,10.0,Calm,Calm,-,N/A,,Clear,0,2013-04-02 05:55:00
1:15 AM,60.8,55.4,82,30.02,10.0,Calm,Calm,-,N/A,,Clear,0,2013-04-02 06:15:00
1:35 AM,62.6,53.6,72,30.02,10.0,SSE,4.6,-,N/A,,Clear,150,2013-04-02 06:35:00
1:55 AM,62.6,53.6,72,30.01,10.0,Calm,Calm,-,N/A,,Clear,0,2013-04-02 06:55:00
2:15 AM,62.6,51.8,68,30.03,10.0,Calm,Calm,-,N/A,,Mostly Cloudy,0,2013-04-02 07:15:00
2:35 AM,62.6,51.8,68,30.03,10.0,Calm,Calm,-,N/A,,Overcast,0,2013-04-02 07:35:00
2:55 AM,62.6,51.8,68,30.03,10.0,Calm,Calm,-,N/A,,Mostly Cloudy,0,2013-04-02 07:55:00
3:15 AM,62.6,53.6,72,30.03,10.0,Calm,Calm,-,N/A,,Partly Cloudy,0,2013-04-02 08:15:00
3:35 AM,62.6,51.8,68,30.03,10.0,SSE,3.5,-,N/A,,Clear,150,2013-04-02 08:35:00
3:55 AM,62.6,51.8,68,30.03,10.0,SE,4.6,-,N/A,,Clear,130,2013-04-02 08:55:00
4:15 AM,62.6,48.2,59,30.02,10.0,SE,5.8,-,N/A,,Clear,140,2013-04-02 09:15:00
4:35 AM,62.6,50.0,63,30.01,10.0,SE,4.6,-,N/A,,Clear,130,2013-04-02 09:35:00
4:55 AM,62.6,50.0,63,30.00,10.0,Calm,Calm,-,N/A,,Clear,0,2013-04-02 09:55:00
5:15 AM,62.6,51.8,68,30.02,10.0,Calm,Calm,-,N/A,,Mostly Cloudy,0,2013-04-02 10:15:00
5:35 AM,62.6,51.8,68,30.01,10.0,SE,6.9,-,N/A,,Mostly Cloudy,130,2013-04-02 10:35:00
5:55 AM,62.6,51.8,68,30.03,10.0,SE,3.5,-,N/A,,Mostly Cloudy,130,2013-04-02 10:55:00
6:15 AM,62.6,51.8,68,30.04,10.0,Calm,Calm,-,N/A,,Overcast,0,2013-04-02 11:15:00
6:35 AM,62.6,53.6,72,30.04,10.0,SE,3.5,-,N/A,,Overcast,130,2013-04-02 11:35:00
6:55 AM,60.8,51.8,72,30.03,10.0,SE,5.8,-,N/A,,Scattered Clouds,140,2013-04-02 11:55:00
7:15 AM,62.6,53.6,72,30.04,10.0,Calm,Calm,-,N/A,,Clear,0,2013-04-02 12:15:00
7:35 AM,60.8,53.6,77,30.05,10.0,Calm,Calm,-,N/A,,Clear,0,2013-04-02 12:35:00
7:55 AM,60.8,53.6,77,30.04,10.0,Calm,Calm,-,N/A,,Clear,0,2013-04-02 12:55:00
8:15 AM,62.6,55.4,77,30.04,10.0,Calm,Calm,-,N/A,,Scattered Clouds,0,2013-04-02 13:15:00
8:35 AM,62.6,55.4,77,30.04,10.0,ESE,3.5,-,N/A,,Partly Cloudy,120,2013-04-02 13:35:00
8:55 AM,62.6,55.4,77,30.05,10.0,SE,5.8,-,N/A,,Partly Cloudy,130,2013-04-02 13:55:00
9:15 AM,64.4,57.2,77,30.06,10.0,Calm,Calm,-,N/A,,Scattered Clouds,0,2013-04-02 14:15:00
9:35 AM,66.2,57.2,73,30.05,10.0,East,6.9,-,N/A,,Partly Cloudy,90,2013-04-02 14:35:00
9:55 AM,68.0,57.2,68,30.04,10.0,ESE,6.9,-,N/A,,Scattered Clouds,120,2013-04-02 14:55:00
10:15 AM,69.8,57.2,64,30.04,10.0,SE,8.1,-,N/A,,Mostly Cloudy,130,2013-04-02 15:15:00
10:35 AM,69.8,57.2,64,30.05,10.0,SSE,8.1,16.1,N/A,,Scattered Clouds,150,2013-04-02 15:35:00
10:55 AM,69.8,55.4,60,30.04,10.0,SE,10.4,-,N/A,,Partly Cloudy,140,2013-04-02 15:55:00
11:15 AM,71.6,57.2,60,30.04,10.0,SE,10.4,-,N/A,,Scattered Clouds,140,2013-04-02 16:15:00
11:35 AM,71.6,57.2,60,30.04,10.0,ESE,5.8,-,N/A,,Mostly Cloudy,120,2013-04-02 16:35:00
11:55 AM,73.4,57.2,57,30.04,10.0,South,4.6,-,N/A,,Mostly Cloudy,170,2013-04-02 16:55:00
12:15 PM,73.4,57.2,57,30.03,10.0,SE,8.1,-,N/A,,Mostly Cloudy,140,2013-04-02 17:15:00
12:35 PM,73.4,57.2,57,30.02,10.0,SSE,8.1,-,N/A,,Mostly Cloudy,150,2013-04-02 17:35:00
12:55 PM,73.4,57.2,57,30.02,10.0,SSE,8.1,-,N/A,,Mostly Cloudy,150,2013-04-02 17:55:00
1:15 PM,73.4,57.2,57,30.02,10.0,SSE,5.8,-,N/A,,Mostly Cloudy,150,2013-04-02 18:15:00
1:35 PM,73.4,57.2,57,30.01,10.0,SE,8.1,-,N/A,,Overcast,130,2013-04-02 18:35:00
1:55 PM,73.4,57.2,57,30.00,10.0,SE,3.5,-,N/A,,Overcast,140,2013-04-02 18:55:00
2:15 PM,75.2,57.2,53,29.99,10.0,ESE,4.6,-,N/A,,Overcast,110,2013-04-02 19:15:00
2:35 PM,75.2,57.2,53,29.99,10.0,Calm,Calm,-,N/A,,Overcast,0,2013-04-02 19:35:00
2:55 PM,75.2,57.2,53,29.98,10.0,Calm,Calm,-,N/A,,Overcast,0,2013-04-02 19:55:00
3:15 PM,73.4,57.2,57,29.97,10.0,Calm,Calm,-,N/A,,Overcast,0,2013-04-02 20:15:00
3:35 PM,66.2,64.4,94,29.96,10.0,Calm,Calm,-,0.03,,Overcast,0,2013-04-02 20:35:00
3:55 PM,68.0,62.6,83,29.96,10.0,Calm,Calm,-,0.03,Thunderstorm,Overcast,0,2013-04-02 20:55:00
4:15 PM,68.0,64.4,88,29.95,10.0,Calm,Calm,-,N/A,,Overcast,0,2013-04-02 21:15:00
4:35 PM,68.0,64.4,88,29.94,9.0,Calm,Calm,-,N/A,Thunderstorm,Overcast,0,2013-04-02 21:35:00
4:55 PM,66.2,62.6,88,29.95,3.0,Calm,Calm,-,0.02,Rain-Thunderstorm,Thunderstorms and Rain,0,2013-04-02 21:55:00
5:15 PM,64.4,64.4,100,29.96,0.8,NW,5.8,-,0.12,Rain-Thunderstorm,Heavy Thunderstorms and Rain,320,2013-04-02 22:15:00
5:35 PM,64.4,64.4,100,29.98,1.8,WSW,3.5,-,0.19,Rain-Thunderstorm,Heavy Thunderstorms and Rain,240,2013-04-02 22:35:00
5:55 PM,64.4,62.6,94,29.96,1.2,ESE,4.6,-,0.33,Rain-Thunderstorm,Thunderstorms and Rain,120,2013-04-02 22:55:00
6:15 PM,62.6,62.6,100,29.94,1.5,ESE,5.8,-,0.02,Rain-Thunderstorm,Thunderstorms and Rain,120,2013-04-02 23:15:00
6:35 PM,62.6,62.6,100,29.94,4.0,Calm,Calm,-,0.03,,Drizzle,0,2013-04-02 23:35:00
6:55 PM,62.6,62.6,100,29.93,4.0,ENE,4.6,-,0.03,Thunderstorm,Light Drizzle,60,2013-04-02 23:55:00
7:15 PM,62.6,62.6,100,29.96,10.0,NW,8.1,-,N/A,,Mostly Cloudy,310,2013-04-03 00:15:00
7:35 PM,62.6,62.6,100,29.97,9.0,NNW,8.1,-,N/A,,Mostly Cloudy,330,2013-04-03 00:35:00
7:55 PM,62.6,62.6,100,29.98,8.0,North,8.1,-,N/A,,Mostly Cloudy,10,2013-04-03 00:55:00
8:15 PM,59.0,59.0,100,29.99,10.0,NE,5.8,-,N/A,,Overcast,40,2013-04-03 01:15:00
8:35 PM,57.2,57.2,100,30.01,10.0,NE,5.8,-,N/A,,Overcast,40,2013-04-03 01:35:00
8:55 PM,55.4,51.8,88,30.02,10.0,NE,5.8,-,N/A,,Overcast,40,2013-04-03 01:55:00
9:15 PM,55.4,50.0,82,30.03,10.0,NE,8.1,-,N/A,,Overcast,40,2013-04-03 02:15:00
9:35 PM,53.6,48.2,82,30.04,10.0,NE,4.6,-,N/A,,Overcast,40,2013-04-03 02:35:00
9:55 PM,53.6,44.6,72,30.05,10.0,NE,5.8,-,N/A,,Overcast,50,2013-04-03 02:55:00
10:15 PM,51.8,42.8,71,30.06,10.0,NE,11.5,18.4,N/A,,Overcast,40,2013-04-03 03:15:00
10:35 PM,51.8,42.8,71,30.08,10.0,NE,5.8,-,N/A,,Overcast,50,2013-04-03 03:35:00
10:55 PM,50.0,41.0,71,30.07,10.0,ENE,6.9,26.5,N/A,,Mostly Cloudy,60,2013-04-03 03:55:00
11:35 PM,50.0,42.8,76,30.06,10.0,ENE,6.9,-,N/A,,Overcast,60,2013-04-03 04:35:00
11:55 PM,50.0,42.8,76,30.05,10.0,East,3.5,-,N/A,,Overcast,90,2013-04-03 04:55:00